Time;durP1;ratioP1;P1;durP2;ratioP2;P2;SDS_P1;SDS_P2;PMS_P1;PMS_P2;Temp;Humidity;BMP_temperature;BMP_pressure;BME280_temperature;BME280_humidity;BME280_pressure;Samples;Min_cycle;Max_cycle;Signal;HPM_P1;HPM_P2
2022/04/08 00:00:43;;;;;;;;;;;;;;;24.68;37.35;93029.69;4937855;28;7051;-60
2022/04/08 00:03:09;;;;;;;;;;;;;;;24.67;37.95;93028.22;4937024;28;8985;-60
2022/04/08 00:05:43;;;;;;;;;;;;;;;24.66;37.51;93029.47;4935444;29;9013;-60
2022/04/08 00:08:21;;;;;;;;;;;;;;;24.67;37.55;93030.97;4940397;28;7215;-60
2022/04/08 00:10:53;;;;;;;;;;;;;;;24.68;38.02;93026.94;4938125;28;9079;-60
2022/04/08 00:13:24;;;;;;;;;;;;;;;24.70;37.56;93026.41;4954188;28;9235;-60
2022/04/08 00:15:51;;;;;;;;;;;;;;;24.69;37.55;93033.16;4932588;28;8989;-60
2022/04/08 00:18:29;;;;;;;;;;;;;;;24.69;37.40;93031.16;4949914;28;8781;-60
2022/04/08 00:20:56;;;;;;;;;;;;;;;24.69;37.18;93017.41;4954490;28;9433;-60
2022/04/08 00:23:29;;;;;;;;;;;;;;;24.68;37.27;93032.44;4953049;28;7514;-60
2022/04/08 00:26:11;;;;;;;;;;;;;;;24.68;37.82;93015.22;4938063;28;9228;-60
2022/04/08 00:28:43;;;;;;;;;;;;;;;24.68;37.77;93015.22;4934401;28;7075;-60
2022/04/08 00:31:15;;;;;;;;;;;;;;;24.69;37.38;93011.19;4936940;28;8767;-60
2022/04/08 00:33:56;;;;;;;;;;;;;;;24.69;37.15;93013.94;4953889;28;8787;-60
2022/04/08 00:36:28;;;;;;;;;;;;;;;24.66;37.66;93009.53;4936792;28;9864;-60
2022/04/08 00:39:31;;;;;;;;;;;;;;;24.68;37.73;93020.72;4936391;28;9100;-60
2022/04/08 00:42:08;;;;;;;;;;;;;;;24.68;37.71;93028.97;4873995;29;8997;-60
2022/04/08 00:44:52;;;;;;;;;;;;;;;24.68;37.51;93026.22;4892473;29;7586;-60
2022/04/08 00:47:48;;;;;;;;;;;;;;;24.67;37.92;93030.22;4867461;29;7636;-60
2022/04/08 00:50:19;;;;;;;;;;;;;;;24.67;37.87;93019.22;4867439;29;7858;-60
2022/04/08 00:52:46;;;;;;;;;;;;;;;24.67;37.97;93006.22;4877592;29;8863;-60
2022/04/08 00:55:14;;;;;;;;;;;;;;;24.67;37.56;93019.97;4874146;29;9120;-60
2022/04/08 00:57:41;;;;;;;;;;;;;;;24.68;37.89;93024.19;4877949;29;9034;-60
2022/04/08 01:00:12;;;;;;;;;;;;;;;24.66;37.92;93023.97;4875455;29;6994;-60
2022/04/08 01:02:40;;;;;;;;;;;;;;;24.64;37.52;93023.06;4868572;29;9101;-60
2022/04/08 01:05:09;;;;;;;;;;;;;;;24.65;37.76;93019.78;4873090;29;6996;-60
2022/04/08 01:07:35;;;;;;;;;;;;;;;24.67;37.90;93006.22;4881700;29;7211;-60
2022/04/08 01:10:02;;;;;;;;;;;;;;;24.67;37.74;93014.47;4872970;29;9149;-60
2022/04/08 01:12:33;;;;;;;;;;;;;;;24.68;37.97;93020.72;4873313;29;7295;-60
2022/04/08 01:15:00;;;;;;;;;;;;;;;24.67;37.70;93019.97;4887500;29;7229;-60
2022/04/08 01:17:42;;;;;;;;;;;;;;;24.68;37.67;93029.69;4950055;29;7059;-60
2022/04/08 01:20:29;;;;;;;;;;;;;;;24.67;37.74;93033.72;4937348;29;6873;-60
2022/04/08 01:22:57;;;;;;;;;;;;;;;24.67;37.66;93033.72;4948187;29;9519;-60
2022/04/08 01:25:23;;;;;;;;;;;;;;;24.66;37.51;93045.97;4936796;29;9518;-60
2022/04/08 01:27:49;;;;;;;;;;;;;;;24.66;37.09;93043.22;4931425;29;7418;-60
2022/04/08 01:30:18;;;;;;;;;;;;;;;24.67;38.19;93041.22;4918074;29;9222;-60
2022/04/08 01:33:00;;;;;;;;;;;;;;;24.67;37.96;93033.72;4933480;29;7297;-60
2022/04/08 01:36:20;;;;;;;;;;;;;;;24.65;37.50;93036.28;4928064;29;9471;-60
2022/04/08 01:38:46;;;;;;;;;;;;;;;24.65;37.76;93028.03;4936614;29;7283;-60
2022/04/08 01:41:21;;;;;;;;;;;;;;;24.65;38.06;93032.78;4953949;29;9816;-60
2022/04/08 01:44:17;;;;;;;;;;;;;;;24.65;37.91;93039.00;4935724;29;7639;-60
2022/04/08 01:46:43;;;;;;;;;;;;;;;24.65;38.00;93047.25;4906568;29;8036;-60
2022/04/08 01:49:21;;;;;;;;;;;;;;;24.63;37.77;93057.31;4910549;29;8625;-60
2022/04/08 01:51:48;;;;;;;;;;;;;;;24.64;37.90;93073.28;4908941;29;7377;-60
2022/04/08 01:54:14;;;;;;;;;;;;;;;24.65;37.76;93057.53;4925556;29;8364;-60
2022/04/08 01:56:40;;;;;;;;;;;;;;;24.65;38.24;93066.50;4929836;29;7289;-60
2022/04/08 01:59:08;;;;;;;;;;;;;;;24.67;38.02;93058.47;4918338;29;7039;-60
2022/04/08 02:01:34;;;;;;;;;;;;;;;24.65;38.08;93049.28;4918982;29;8765;-60
2022/04/08 02:04:04;;;;;;;;;;;;;;;24.66;37.66;93053.50;4913069;29;7885;-60
2022/04/08 02:06:52;;;;;;;;;;;;;;;24.66;37.71;93065.22;4912234;29;9223;-60
2022/04/08 02:09:18;;;;;;;;;;;;;;;24.66;37.98;93056.25;4904522;29;9211;-60
2022/04/08 02:11:46;;;;;;;;;;;;;;;24.65;37.55;93039.00;4916262;29;9476;-60
2022/04/08 02:14:13;;;;;;;;;;;;;;;24.64;38.08;93037.53;4911218;29;7675;-60
2022/04/08 02:16:47;;;;;;;;;;;;;;;24.66;37.77;93034.25;4925537;29;9354;-60
2022/04/08 02:19:25;;;;;;;;;;;;;;;24.62;37.73;93040.09;4903435;29;9553;-60
2022/04/08 02:21:51;;;;;;;;;;;;;;;24.64;37.74;93043.03;4914410;29;7240;-60
2022/04/08 02:24:28;;;;;;;;;;;;;;;24.67;37.59;93041.22;4944778;28;7230;-60
2022/04/08 02:26:55;;;;;;;;;;;;;;;24.64;38.22;93037.53;4937390;29;8930;-60
2022/04/08 02:29:38;;;;;;;;;;;;;;;24.66;37.63;93037.00;4956049;28;7121;-60
2022/04/08 02:32:20;;;;;;;;;;;;;;;24.64;38.07;93054.03;4955602;28;9702;-60
2022/04/08 02:34:55;;;;;;;;;;;;;;;24.65;37.84;93044.50;4936244;28;9094;-60
2022/04/08 02:37:21;;;;;;;;;;;;;;;24.65;38.24;93055.50;4930406;28;8224;-60
2022/04/08 02:39:54;;;;;;;;;;;;;;;24.65;38.28;93039.00;4926904;28;7260;-60
2022/04/08 02:42:34;;;;;;;;;;;;;;;24.65;37.64;93041.03;4957275;28;9154;-60
2022/04/08 02:45:01;;;;;;;;;;;;;;;24.64;38.16;93037.53;4935157;28;9555;-60
2022/04/08 02:47:28;;;;;;;;;;;;;;;24.63;38.22;93036.06;4938248;28;6990;-60
2022/04/08 02:49:55;;;;;;;;;;;;;;;24.64;37.96;93036.81;4927616;28;9118;-60
2022/04/08 02:52:22;;;;;;;;;;;;;;;24.65;38.04;93039.00;4935589;28;7236;-60
2022/04/08 02:54:47;;;;;;;;;;;;;;;24.64;37.59;93032.03;4931025;28;9283;-60
2022/04/08 02:57:13;;;;;;;;;;;;;;;24.65;38.38;93038.28;4953953;28;7259;-60
2022/04/08 02:59:39;;;;;;;;;;;;;;;24.67;37.90;93035.72;4933860;28;7575;-60
2022/04/08 03:02:05;;;;;;;;;;;;;;;24.65;38.24;93041.03;4950630;28;7014;-60
2022/04/08 03:04:31;;;;;;;;;;;;;;;24.63;38.05;93038.06;4934574;28;7233;-60
2022/04/08 03:06:58;;;;;;;;;;;;;;;24.63;37.88;93025.06;4948198;28;7063;-60
2022/04/08 03:09:24;;;;;;;;;;;;;;;24.63;38.29;93033.31;4932313;28;7060;-60
2022/04/08 03:11:51;;;;;;;;;;;;;;;24.63;38.17;93029.81;4930934;28;7723;-60
2022/04/08 03:14:17;;;;;;;;;;;;;;;24.65;38.11;93033.53;4937600;28;7680;-60
2022/04/08 03:16:45;;;;;;;;;;;;;;;24.65;38.36;93038.28;4955195;28;9480;-60
2022/04/08 03:19:18;;;;;;;;;;;;;;;24.63;37.75;93047.06;4933548;28;6924;-60
2022/04/08 03:21:45;;;;;;;;;;;;;;;24.63;37.91;93036.06;4928223;29;7266;-60
2022/04/08 03:24:12;;;;;;;;;;;;;;;24.63;37.75;93052.56;4919651;29;7259;-60
2022/04/08 03:26:39;;;;;;;;;;;;;;;24.63;38.23;93058.06;4952783;28;7062;-60
2022/04/08 03:29:05;;;;;;;;;;;;;;;24.61;38.06;93051.63;4931691;28;7330;-60
2022/04/08 03:31:31;;;;;;;;;;;;;;;24.64;37.64;93059.53;4941840;28;9042;-60
2022/04/08 03:33:57;;;;;;;;;;;;;;;24.64;37.81;93065.03;4940029;28;8680;-60
2022/04/08 03:36:23;;;;;;;;;;;;;;;24.64;37.82;93076.03;4935563;28;7163;-60
2022/04/08 03:38:49;;;;;;;;;;;;;;;24.66;37.78;93073.47;4933405;28;9094;-60
2022/04/08 03:41:15;;;;;;;;;;;;;;;24.65;37.72;93061.00;4933574;28;8788;-60
2022/04/08 03:43:41;;;;;;;;;;;;;;;24.64;38.23;93067.78;4951221;28;7236;-60
2022/04/08 03:46:07;;;;;;;;;;;;;;;24.65;37.63;93068.50;4950590;28;7258;-60
2022/04/08 03:48:33;;;;;;;;;;;;;;;24.63;38.02;93058.06;4935319;28;8771;-60
2022/04/08 03:50:59;;;;;;;;;;;;;;;24.63;37.74;93071.06;4933841;28;7236;-60
2022/04/08 03:53:25;;;;;;;;;;;;;;;24.62;38.22;93070.31;4934552;28;9024;-60
2022/04/08 03:55:51;;;;;;;;;;;;;;;24.62;38.18;93083.34;4937273;28;9173;-60
2022/04/08 03:58:17;;;;;;;;;;;;;;;24.63;37.83;93074.56;4942737;28;7232;-60
2022/04/08 04:00:43;;;;;;;;;;;;;;;24.62;38.25;93072.34;4937995;28;8414;-60
2022/04/08 04:03:11;;;;;;;;;;;;;;;24.62;37.62;93064.81;4940682;28;7219;-60
2022/04/08 04:05:43;;;;;;;;;;;;;;;24.63;37.96;93060.81;4932188;28;6992;-60
2022/04/08 04:08:26;;;;;;;;;;;;;;;24.62;38.34;93056.56;4936140;28;7444;-60
2022/04/08 04:10:54;;;;;;;;;;;;;;;24.62;38.17;93050.38;4937976;28;8919;-60
2022/04/08 04:13:49;;;;;;;;;;;;;;;24.60;38.31;93053.63;4941159;28;7067;-60
2022/04/08 04:16:26;;;;;;;;;;;;;;;24.62;38.38;93059.31;4891561;29;9572;-60
2022/04/08 04:19:08;;;;;;;;;;;;;;;24.63;38.23;93035.31;4896885;29;7054;-60
2022/04/08 04:21:35;;;;;;;;;;;;;;;24.62;37.66;93039.38;4909539;29;8917;-60
2022/04/08 04:24:03;;;;;;;;;;;;;;;24.63;38.01;93027.81;4894290;29;9378;-60
2022/04/08 04:26:30;;;;;;;;;;;;;;;24.62;37.73;93022.88;4891945;29;7037;-60
2022/04/08 04:28:56;;;;;;;;;;;;;;;24.63;37.96;93016.81;4895444;29;9088;-60
2022/04/08 04:31:21;;;;;;;;;;;;;;;24.61;38.15;93032.38;4889678;29;7401;-60
2022/04/08 04:33:48;;;;;;;;;;;;;;;24.62;37.52;93029.09;4888653;29;7975;-60
2022/04/08 04:36:17;;;;;;;;;;;;;;;24.58;37.94;93014.94;4898484;29;7108;-60
2022/04/08 04:38:43;;;;;;;;;;;;;;;24.62;37.98;93026.34;4881436;29;8857;-60
2022/04/08 04:41:11;;;;;;;;;;;;;;;24.62;38.15;93031.84;4890623;29;7873;-60
2022/04/08 04:43:39;;;;;;;;;;;;;;;24.63;38.21;93025.06;4892453;29;9376;-60
2022/04/08 04:46:05;;;;;;;;;;;;;;;24.63;37.81;93029.81;4880059;29;9763;-60
2022/04/08 04:48:31;;;;;;;;;;;;;;;24.61;38.91;93016.63;4902235;29;8434;-60
2022/04/08 04:50:57;;;;;;;;;;;;;;;24.64;38.17;93015.53;4888952;29;9087;-59
2022/04/08 04:53:40;;;;;;;;;;;;;;;24.63;37.86;93002.34;4936677;28;7232;-61
2022/04/08 04:56:06;;;;;;;;;;;;;;;24.63;38.06;93003.09;4938409;28;7112;-61
2022/04/08 04:58:31;;;;;;;;;;;;;;;24.63;38.34;92997.59;4951924;28;9099;-61
2022/04/08 05:00:59;;;;;;;;;;;;;;;24.64;38.04;92995.56;4934537;28;7233;-61
2022/04/08 05:03:37;;;;;;;;;;;;;;;24.65;37.40;92997.03;4936411;28;8365;-61
2022/04/08 05:06:16;;;;;;;;;;;;;;;24.64;37.29;92992.81;4934504;29;7270;-61
2022/04/08 05:09:07;;;;;;;;;;;;;;;24.66;37.41;92991.00;4931433;29;7272;-61
2022/04/08 05:11:42;;;;;;;;;;;;;;;24.64;37.00;92987.31;4946664;28;7276;-61
2022/04/08 05:14:17;;;;;;;;;;;;;;;24.64;37.16;92995.56;4934190;29;7082;-61
2022/04/08 05:16:49;;;;;;;;;;;;;;;24.64;37.42;92993.53;4937247;29;8942;-61
2022/04/08 05:19:42;;;;;;;;;;;;;;;24.63;36.88;92986.59;4936066;29;7283;-61
2022/04/08 05:22:09;;;;;;;;;;;;;;;24.59;36.94;92979.94;4910123;29;7282;-61
2022/04/08 05:24:50;;;;;;;;;;;;;;;24.65;37.16;92984.03;4914089;29;9539;-61
2022/04/08 05:27:45;;;;;;;;;;;;;;;24.67;36.89;92980.75;4897875;29;9497;-61
2022/04/08 05:30:43;;;;;;;;;;;;;;;24.63;37.12;92981.09;4894696;29;9113;-61
2022/04/08 05:33:11;;;;;;;;;;;;;;;24.62;37.28;92981.63;4851807;29;7008;-61
2022/04/08 05:35:36;;;;;;;;;;;;;;;24.63;37.03;92983.84;4837645;29;7154;-61
2022/04/08 05:38:12;;;;;;;;;;;;;;;24.60;37.02;92976.66;4840007;29;7730;-61
2022/04/08 05:40:38;;;;;;;;;;;;;;;24.63;38.07;92970.09;4843779;29;7318;-60
2022/04/08 05:43:15;;;;;;;;;;;;;;;24.64;38.61;92973.59;4850093;29;9663;-60
2022/04/08 05:45:41;;;;;;;;;;;;;;;24.64;38.17;92977.03;4852922;29;9743;-60
2022/04/08 05:48:18;;;;;;;;;;;;;;;24.62;37.89;92968.59;4834960;29;7715;-60
2022/04/08 05:50:55;;;;;;;;;;;;;;;24.63;37.90;92972.84;4840885;29;7058;-61
2022/04/08 05:53:32;;;;;;;;;;;;;;;24.63;37.59;92967.34;4854631;29;9751;-61
2022/04/08 05:55:58;;;;;;;;;;;;;;;24.66;37.38;92963.50;4841840;29;8456;-60
2022/04/08 05:58:27;;;;;;;;;;;;;;;24.67;37.46;92975.25;4848013;29;7439;-60
2022/04/08 06:00:55;;;;;;;;;;;;;;;24.68;37.17;92976.72;4857857;29;7377;-60
2022/04/08 06:03:42;;;;;;;;;;;;;;;24.67;37.22;92975.97;4855493;29;9234;-60
2022/04/08 06:06:09;;;;;;;;;;;;;;;24.69;37.48;92984.44;4859256;29;9557;-60
2022/04/08 06:08:46;;;;;;;;;;;;;;;24.70;37.37;92977.66;4865150;29;9538;-60
2022/04/08 06:11:15;;;;;;;;;;;;;;;24.69;37.17;92975.44;4954258;28;9147;-61
2022/04/08 06:13:43;;;;;;;;;;;;;;;24.63;35.56;92972.84;4930160;28;9013;-61
2022/04/08 06:16:37;;;;;;;;;;;;;;;24.39;33.68;92975.19;4932163;28;9074;-62
2022/04/08 06:19:05;;;;;;;;;;;;;;;24.30;32.62;92976.41;4946978;28;8212;-61
2022/04/08 06:21:32;;;;;;;;;;;;;;;24.28;33.20;92978.94;4944552;28;6850;-61
2022/04/08 06:24:10;;;;;;;;;;;;;;;24.29;32.64;92974.19;4952687;28;7177;-61
2022/04/08 06:26:36;;;;;;;;;;;;;;;24.27;33.27;92971.97;4935049;29;8856;-61
2022/04/08 06:29:04;;;;;;;;;;;;;;;24.28;33.21;92965.22;4918331;29;8925;-60
2022/04/08 06:31:34;;;;;;;;;;;;;;;24.29;33.96;92974.94;4947292;28;8270;-60
2022/04/08 06:34:01;;;;;;;;;;;;;;;24.31;33.81;92968.91;4940140;28;9144;-61
2022/04/08 06:36:31;;;;;;;;;;;;;;;24.35;33.47;92972.03;4932204;28;7316;-60
2022/04/08 06:39:04;;;;;;;;;;;;;;;24.35;33.56;92961.06;4934836;28;7846;-60
2022/04/08 06:41:31;;;;;;;;;;;;;;;24.37;34.02;92966.75;4945709;28;7184;-60
2022/04/08 06:43:59;;;;;;;;;;;;;;;24.39;33.92;92962.19;4935088;28;9141;-60
2022/04/08 06:46:40;;;;;;;;;;;;;;;24.40;33.81;92958.16;4948852;28;9074;-60
2022/04/08 06:49:06;;;;;;;;;;;;;;;24.38;33.96;92954.50;4943027;28;9277;-60
2022/04/08 06:51:44;;;;;;;;;;;;;;;24.43;34.09;92959.84;4935322;28;7486;-61
2022/04/08 06:54:18;;;;;;;;;;;;;;;24.43;33.82;92957.09;4934968;28;9096;-60
2022/04/08 06:56:44;;;;;;;;;;;;;;;24.45;34.34;92951.78;4939065;28;7246;-60
2022/04/08 06:59:11;;;;;;;;;;;;;;;24.46;34.01;92955.28;4952422;28;8749;-61
2022/04/08 07:01:57;;;;;;;;;;;;;;;24.41;34.33;92945.91;4943500;28;9072;-61
2022/04/08 07:04:48;;;;;;;;;;;;;;;24.40;34.42;92930.69;4934995;28;9120;-61
2022/04/08 07:07:33;;;;;;;;;;;;;;;24.53;34.02;92927.84;4934540;28;7255;-62
2022/04/08 07:10:01;;;;;;;;;;;;;;;24.66;33.86;92932.53;4949705;28;8545;-62
2022/04/08 07:12:38;;;;;;;;;;;;;;;24.77;34.57;92920.53;4936647;28;9081;-63
2022/04/08 07:15:06;;;;;;;;;;;;;;;24.86;34.40;92909.75;4953069;28;8732;-62
2022/04/08 07:17:36;;;;;;;;;;;;;;;24.92;34.62;92904.88;4934065;28;7238;-62
2022/04/08 07:20:04;;;;;;;;;;;;;;;24.94;34.77;92904.31;4936865;28;7510;-63
2022/04/08 07:22:43;;;;;;;;;;;;;;;24.92;34.59;92895.88;4939349;28;9003;-61
2022/04/08 07:25:20;;;;;;;;;;;;;;;24.88;34.54;92882.47;4941277;28;6849;-62
2022/04/08 07:28:23;;;;;;;;;;;;;;;24.85;34.75;92885.56;4955752;28;7409;-61
2022/04/08 07:30:51;;;;;;;;;;;;;;;24.83;34.90;92877.88;4892211;29;9742;-62
2022/04/08 07:33:17;;;;;;;;;;;;;;;24.82;34.94;92878.38;4876340;29;7944;-62
2022/04/08 07:35:51;;;;;;;;;;;;;;;24.81;34.92;92874.19;4881892;29;7268;-61
2022/04/08 07:38:18;;;;;;;;;;;;;;;24.78;34.57;92867.00;4877317;29;9148;-61
2022/04/08 07:40:44;;;;;;;;;;;;;;;24.78;34.68;92853.25;4898633;29;7275;-61
2022/04/08 07:43:33;;;;;;;;;;;;;;;24.78;35.52;92842.25;4877745;29;8652;-60
2022/04/08 07:46:00;;;;;;;;;;;;;;;24.79;35.68;92843.75;4879554;29;7264;-61
2022/04/08 07:48:41;;;;;;;;;;;;;;;24.78;35.99;92842.25;4874254;29;9084;-61
2022/04/08 07:51:11;;;;;;;;;;;;;;;24.78;35.77;92848.50;4877250;29;9390;-61
2022/04/08 07:53:42;;;;;;;;;;;;;;;24.76;35.67;92840.06;4889293;29;9146;-61
2022/04/08 07:56:08;;;;;;;;;;;;;;;24.80;35.75;92839.69;4878648;29;7282;-61
2022/04/08 07:58:34;;;;;;;;;;;;;;;24.82;35.88;92848.13;4877113;29;9127;-61
2022/04/08 08:01:02;;;;;;;;;;;;;;;24.81;35.22;92841.19;4885135;29;7345;-61
2022/04/08 08:03:34;;;;;;;;;;;;;;;24.81;35.22;92827.44;4886893;29;7260;-61
2022/04/08 08:06:15;;;;;;;;;;;;;;;24.80;35.24;92828.69;4892594;28;9585;-61
2022/04/08 08:08:44;;;;;;;;;;;;;;;24.80;35.91;92823.19;4930899;28;8095;-61
2022/04/08 08:11:12;;;;;;;;;;;;;;;24.80;35.63;92817.69;4949266;28;7238;-61
2022/04/08 08:13:39;;;;;;;;;;;;;;;24.83;35.82;92811.88;4934337;28;9861;-61
2022/04/08 08:16:11;;;;;;;;;;;;;;;24.85;35.61;92814.06;4929001;28;7227;-61
2022/04/08 08:18:37;;;;;;;;;;;;;;;24.83;35.57;92806.38;4930323;28;7220;-61
2022/04/08 08:21:05;;;;;;;;;;;;;;;24.84;36.02;92801.63;4946661;28;9014;-61
2022/04/08 08:23:31;;;;;;;;;;;;;;;24.82;35.69;92787.66;4931836;28;9180;-61
2022/04/08 08:25:58;;;;;;;;;;;;;;;24.81;36.11;92778.69;4942427;28;9101;-61
2022/04/08 08:28:24;;;;;;;;;;;;;;;24.82;36.14;92788.38;4932343;28;6978;-61
2022/04/08 08:30:52;;;;;;;;;;;;;;;24.84;36.09;92779.63;4923019;28;7205;-59
2022/04/08 08:33:20;;;;;;;;;;;;;;;24.84;36.13;92782.38;4927026;28;9143;-60
2022/04/08 08:35:47;;;;;;;;;;;;;;;24.82;35.66;92777.38;4930586;28;6978;-60
2022/04/08 08:38:15;;;;;;;;;;;;;;;24.86;36.04;92782.56;4929362;28;7263;-59
2022/04/08 08:40:44;;;;;;;;;;;;;;;24.84;36.26;92780.31;4929757;28;9331;-59
2022/04/08 08:43:18;;;;;;;;;;;;;;;24.83;35.85;92778.88;4928785;28;9168;-59
2022/04/08 08:45:51;;;;;;;;;;;;;;;24.82;36.28;92782.16;4930853;28;7193;-59
2022/04/08 08:48:20;;;;;;;;;;;;;;;24.81;36.26;92777.94;4928905;28;7485;-59
2022/04/08 08:50:48;;;;;;;;;;;;;;;24.82;36.41;92782.88;4916707;28;9076;-59
2022/04/08 08:53:22;;;;;;;;;;;;;;;24.82;36.02;92793.16;4924709;28;7498;-61
2022/04/08 08:55:49;;;;;;;;;;;;;;;24.83;36.12;92786.38;4942515;28;9091;-60
2022/04/08 08:58:16;;;;;;;;;;;;;;;24.83;36.30;92784.38;4930639;29;9055;-60
2022/04/08 09:00:46;;;;;;;;;;;;;;;24.83;36.42;92789.13;4926158;28;7207;-60
2022/04/08 09:03:14;;;;;;;;;;;;;;;24.86;36.25;92780.50;4927825;28;7023;-60
2022/04/08 09:05:47;;;;;;;;;;;;;;;24.87;36.22;92784.00;4936960;28;9465;-60
2022/04/08 09:08:15;;;;;;;;;;;;;;;24.87;36.25;92782.00;4935472;28;9141;-61
2022/04/08 09:10:45;;;;;;;;;;;;;;;24.85;36.01;92787.31;4937659;28;7255;-60
2022/04/08 09:13:18;;;;;;;;;;;;;;;24.83;36.22;92786.38;4944369;28;7241;-60
2022/04/08 09:15:59;;;;;;;;;;;;;;;24.84;36.45;92796.81;4929081;29;7235;-60
2022/04/08 09:18:32;;;;;;;;;;;;;;;24.82;36.69;92793.88;4936793;29;8779;-60
2022/04/08 09:21:02;;;;;;;;;;;;;;;24.82;36.21;92788.38;4933243;29;7264;-60
2022/04/08 09:23:33;;;;;;;;;;;;;;;24.80;36.43;92787.44;4945144;29;8655;-60
2022/04/08 09:26:04;;;;;;;;;;;;;;;24.82;36.61;92790.41;4936181;29;7135;-60
2022/04/08 09:28:36;;;;;;;;;;;;;;;24.83;36.18;92786.38;4952767;29;9173;-60
2022/04/08 09:31:03;;;;;;;;;;;;;;;24.84;36.44;92785.13;4950562;29;9047;-60
2022/04/08 09:33:31;;;;;;;;;;;;;;;24.83;36.79;92783.63;4949166;28;8999;-60
2022/04/08 09:36:00;;;;;;;;;;;;;;;24.85;36.52;92783.81;4951873;29;7073;-60
2022/04/08 09:38:32;;;;;;;;;;;;;;;24.85;37.00;92787.31;4929461;29;9059;-60
2022/04/08 09:41:03;;;;;;;;;;;;;;;24.86;36.54;92788.06;4929853;29;7375;-60
2022/04/08 09:43:35;;;;;;;;;;;;;;;24.84;36.60;92780.31;4927928;29;7178;-60
2022/04/08 09:46:21;;;;;;;;;;;;;;;24.84;36.57;92783.06;4935782;29;9071;-60
2022/04/08 09:49:01;;;;;;;;;;;;;;;24.83;36.65;92787.13;4946885;28;9272;-60
2022/04/08 09:51:27;;;;;;;;;;;;;;;24.83;36.76;92792.63;4929774;29;7251;-60
2022/04/08 09:54:02;;;;;;;;;;;;;;;24.84;37.02;92790.63;4918536;29;7867;-60
2022/04/08 09:56:29;;;;;;;;;;;;;;;24.83;36.70;92789.13;4947819;29;9127;-60
2022/04/08 09:59:02;;;;;;;;;;;;;;;24.82;37.27;92788.38;4948289;29;7054;-61
2022/04/08 10:01:32;;;;;;;;;;;;;;;24.83;36.85;92783.63;4950461;29;9051;-60
2022/04/08 10:04:00;;;;;;;;;;;;;;;24.85;36.75;92781.06;4932735;29;6868;-60
2022/04/08 10:06:52;;;;;;;;;;;;;;;24.84;37.36;92776.88;4933377;29;8699;-59
2022/04/08 10:09:33;;;;;;;;;;;;;;;24.83;37.75;92761.63;4929367;28;7263;-60
2022/04/08 10:12:46;;;;;;;;;;;;;;;24.87;37.72;92756.50;4952497;28;6991;-60
2022/04/08 10:15:23;;;;;;;;;;;;;;;24.90;37.84;92747.19;4856035;29;8735;-60
2022/04/08 10:17:59;;;;;;;;;;;;;;;24.91;37.65;92738.38;4870671;29;7965;-59
2022/04/08 10:20:37;;;;;;;;;;;;;;;24.94;38.24;92740.03;4857243;29;7129;-60
2022/04/08 10:23:11;;;;;;;;;;;;;;;24.95;38.02;92724.25;4859899;29;9105;-60
2022/04/08 10:25:50;;;;;;;;;;;;;;;24.97;37.86;92724.47;4875109;29;7007;-59
2022/04/08 10:28:16;;;;;;;;;;;;;;;24.96;37.46;92720.25;4858449;29;9061;-60
2022/04/08 10:30:51;;;;;;;;;;;;;;;24.94;37.99;92709.06;4848726;29;7002;-60
2022/04/08 10:33:25;;;;;;;;;;;;;;;24.97;37.98;92699.72;4863296;29;7466;-60
2022/04/08 10:35:53;;;;;;;;;;;;;;;24.94;38.77;92689.81;4856835;29;7881;-60
2022/04/08 10:38:19;;;;;;;;;;;;;;;24.95;38.12;92680.25;4865118;29;9384;-60
2022/04/08 10:41:14;;;;;;;;;;;;;;;24.95;38.51;92666.50;4869023;29;9392;-60
2022/04/08 10:43:48;;;;;;;;;;;;;;;24.96;39.06;92665.22;4852649;29;9107;-60
2022/04/08 10:46:34;;;;;;;;;;;;;;;24.95;38.70;92661.75;4856901;29;9862;-60
2022/04/08 10:49:08;;;;;;;;;;;;;;;24.98;39.43;92659.91;4908883;28;8786;-60
2022/04/08 10:51:59;;;;;;;;;;;;;;;25.00;38.65;92649.09;4932593;28;7263;-60
2022/04/08 10:54:42;;;;;;;;;;;;;;;24.99;38.84;92647.66;4933264;28;9048;-60
2022/04/08 10:57:08;;;;;;;;;;;;;;;25.00;38.84;92649.09;4934879;28;9388;-60
2022/04/08 10:59:39;;;;;;;;;;;;;;;24.97;39.22;92653.66;4935170;28;7249;-59
2022/04/08 11:02:12;;;;;;;;;;;;;;;24.98;38.99;92651.66;4932708;28;7320;-60
2022/04/08 11:04:47;;;;;;;;;;;;;;;24.98;38.98;92646.16;4939274;28;7914;-60
2022/04/08 11:07:16;;;;;;;;;;;;;;;24.98;39.72;92652.41;4948266;28;6985;-60
2022/04/08 11:09:53;;;;;;;;;;;;;;;25.01;39.33;92661.59;4936744;28;7145;-60
2022/04/08 11:12:54;;;;;;;;;;;;;;;25.01;38.87;92672.59;4940835;28;8752;-60
2022/04/08 11:15:31;;;;;;;;;;;;;;;25.01;39.61;92656.06;4930989;28;9166;-60
2022/04/08 11:18:08;;;;;;;;;;;;;;;25.02;39.04;92644.53;4931618;28;8923;-61
2022/04/08 11:20:49;;;;;;;;;;;;;;;25.04;38.96;92643.97;4952976;28;9407;-61
2022/04/08 11:23:35;;;;;;;;;;;;;;;25.03;38.81;92642.50;4931840;28;9540;-60
2022/04/08 11:26:44;;;;;;;;;;;;;;;25.05;38.76;92631.69;4933364;28;9124;-60
2022/04/08 11:29:19;;;;;;;;;;;;;;;25.03;38.66;92626.00;4873847;29;7317;-60
2022/04/08 11:31:50;;;;;;;;;;;;;;;25.03;39.21;92631.50;4881634;29;9059;-61
2022/04/08 11:34:17;;;;;;;;;;;;;;;25.01;39.19;92625.81;4881406;29;9389;-61
2022/04/08 11:36:44;;;;;;;;;;;;;;;25.03;39.49;92617.75;4889924;29;7333;-61
2022/04/08 11:39:26;;;;;;;;;;;;;;;25.02;39.31;92619.03;4875204;29;8936;-61
2022/04/08 11:42:04;;;;;;;;;;;;;;;25.02;39.27;92624.53;4881983;29;9042;-61
2022/04/08 11:44:43;;;;;;;;;;;;;;;25.03;38.99;92626.00;4869968;29;7026;-61
2022/04/08 11:47:11;;;;;;;;;;;;;;;25.04;38.83;92627.47;4868432;29;7022;-61
2022/04/08 11:49:45;;;;;;;;;;;;;;;25.02;39.18;92603.25;4878630;29;9217;-61
2022/04/08 11:52:11;;;;;;;;;;;;;;;25.04;38.71;92605.44;4884846;29;7155;-61
2022/04/08 11:54:47;;;;;;;;;;;;;;;25.03;39.17;92601.25;4883970;29;6975;-61
2022/04/08 11:57:13;;;;;;;;;;;;;;;25.04;38.49;92594.44;4881973;29;7058;-61
2022/04/08 11:59:40;;;;;;;;;;;;;;;25.07;39.09;92583.09;4868831;29;9474;-61
2022/04/08 12:02:07;;;;;;;;;;;;;;;25.09;39.26;92568.78;4884883;28;7501;-61
2022/04/08 12:04:33;;;;;;;;;;;;;;;25.09;39.04;92568.78;4935889;28;7167;-61
2022/04/08 12:07:00;;;;;;;;;;;;;;;25.09;38.51;92566.78;4952547;28;9095;-61
2022/04/08 12:09:27;;;;;;;;;;;;;;;25.07;38.65;92576.84;4928953;28;8619;-60
2022/04/08 12:12:00;;;;;;;;;;;;;;;25.07;38.33;92552.09;4948875;28;7154;-61
2022/04/08 12:14:30;;;;;;;;;;;;;;;25.09;38.95;92560.53;4944004;28;7243;-61
2022/04/08 12:17:16;;;;;;;;;;;;;;;25.09;38.62;92546.78;4935895;28;9097;-61
2022/04/08 12:19:43;;;;;;;;;;;;;;;25.10;38.75;92551.00;4940622;28;7435;-61
2022/04/08 12:22:13;;;;;;;;;;;;;;;25.11;38.32;92558.69;4936515;28;9342;-61
2022/04/08 12:24:50;;;;;;;;;;;;;;;25.09;38.61;92566.03;4941841;28;8831;-61
2022/04/08 12:27:19;;;;;;;;;;;;;;;25.11;38.29;92561.47;4935249;28;7184;-61
2022/04/08 12:30:31;;;;;;;;;;;;;;;25.10;38.55;92565.47;4953328;28;9382;-61
2022/04/08 12:32:58;;;;;;;;;;;;;;;25.11;38.48;92563.47;4891902;29;7184;-61
2022/04/08 12:35:33;;;;;;;;;;;;;;;25.11;38.53;92553.19;4891396;29;7052;-61
2022/04/08 12:38:04;;;;;;;;;;;;;;;25.11;38.27;92546.97;4887058;29;7369;-61
2022/04/08 12:40:32;;;;;;;;;;;;;;;25.09;38.29;92541.28;4874595;29;9507;-60
2022/04/08 12:43:01;;;;;;;;;;;;;;;25.09;38.21;92533.75;4889777;29;9214;-61
2022/04/08 12:45:28;;;;;;;;;;;;;;;25.08;37.90;92523.28;4892987;29;7281;-61
2022/04/08 12:47:57;;;;;;;;;;;;;;;25.09;38.47;92531.00;4879192;29;9317;-61
2022/04/08 12:50:23;;;;;;;;;;;;;;;25.06;37.92;92520.38;4877568;29;7195;-61
2022/04/08 12:52:58;;;;;;;;;;;;;;;25.06;38.11;92520.38;4878371;29;7298;-61
2022/04/08 12:55:26;;;;;;;;;;;;;;;25.09;37.95;92516.53;4874687;29;9186;-61
2022/04/08 12:57:52;;;;;;;;;;;;;;;25.08;37.71;92504.78;4890366;29;9510;-61
2022/04/08 13:00:23;;;;;;;;;;;;;;;25.09;37.74;92511.75;4890438;29;9123;-61
2022/04/08 13:02:52;;;;;;;;;;;;;;;25.11;38.33;92508.44;4888697;29;9093;-61
2022/04/08 13:05:24;;;;;;;;;;;;;;;25.05;37.88;92514.16;4933720;28;7362;-61
2022/04/08 13:07:52;;;;;;;;;;;;;;;25.08;38.40;92528.78;4918684;28;9119;-61
2022/04/08 13:10:22;;;;;;;;;;;;;;;25.05;38.47;92508.66;4945066;28;9250;-61
2022/04/08 13:12:51;;;;;;;;;;;;;;;25.08;37.62;92509.53;4931346;28;7177;-61
2022/04/08 13:15:18;;;;;;;;;;;;;;;25.05;38.06;92494.16;4946372;28;7510;-61
2022/04/08 13:17:47;;;;;;;;;;;;;;;25.07;37.60;92489.56;4946173;29;9035;-61
2022/04/08 13:20:13;;;;;;;;;;;;;;;25.10;37.90;92490.50;4933385;29;8793;-61
2022/04/08 13:22:41;;;;;;;;;;;;;;;25.08;37.44;92493.03;4930622;29;8203;-61
2022/04/08 13:25:09;;;;;;;;;;;;;;;25.09;37.73;92520.00;4931684;29;7142;-61